Time;durP1;ratioP1;P1;durP2;ratioP2;P2;SDS_P1;SDS_P2;PMS_P1;PMS_P2;Temp;Humidity;BMP_temperature;BMP_pressure;BME280_temperature;BME280_humidity;BME280_pressure;Samples;Min_cycle;Max_cycle;Signal;HPM_P1;HPM_P2
2021/07/23 00:01:35;;;;;;;;;;;;;;;12.24;60.78;66636.97;5133751;27;19923;-72
2021/07/23 00:04:03;;;;;;;;;;;;;;;12.22;60.10;66634.41;5134253;27;19923;-72
2021/07/23 00:06:30;;;;;;;;;;;;;;;12.19;60.55;66631.25;5134522;27;19930;-72
2021/07/23 00:08:56;;;;;;;;;;;;;;;12.15;60.84;66627.81;5134169;27;20373;-72
2021/07/23 00:11:23;;;;;;;;;;;;;;;12.11;61.93;66622.66;5134607;27;19931;-72
2021/07/23 00:13:49;;;;;;;;;;;;;;;12.06;61.99;66618.06;5134779;27;19924;-72
2021/07/23 00:16:16;;;;;;;;;;;;;;;12.02;62.87;66612.75;5134379;27;19923;-72
2021/07/23 00:18:43;;;;;;;;;;;;;;;11.98;62.40;66608.16;5134143;27;19929;-72
2021/07/23 00:21:11;;;;;;;;;;;;;;;11.93;62.45;66603.28;5133818;27;19930;-72
2021/07/23 00:23:37;;;;;;;;;;;;;;;11.88;63.92;66597.53;5134034;27;19923;-72
2021/07/23 00:26:09;;;;;;;;;;;;;;;11.85;62.89;66593.63;5133790;27;20373;-72
2021/07/23 00:28:36;;;;;;;;;;;;;;;11.79;65.50;66586.91;5134274;27;19924;-72
2021/07/23 00:31:02;;;;;;;;;;;;;;;11.74;64.44;66580.88;5133743;27;19923;-72
2021/07/23 00:33:29;;;;;;;;;;;;;;;11.69;64.58;66575.50;5134151;27;19924;-72
2021/07/23 00:35:55;;;;;;;;;;;;;;;11.62;65.74;66568.22;5133950;27;19923;-72
2021/07/23 00:38:23;;;;;;;;;;;;;;;11.57;65.26;66561.97;5133999;27;19930;-72
2021/07/23 00:40:50;;;;;;;;;;;;;;;11.50;67.22;66554.63;5133656;27;19923;-72
2021/07/23 00:43:17;;;;;;;;;;;;;;;11.43;67.05;66546.81;5133589;27;20398;-72
2021/07/23 00:45:44;;;;;;;;;;;;;;;11.37;67.18;66540.34;5133866;27;19923;-72
2021/07/23 00:48:10;;;;;;;;;;;;;;;11.33;65.44;66535.88;5133541;27;19927;-72
2021/07/23 00:50:37;;;;;;;;;;;;;;;11.29;64.73;66532.00;5133578;27;19923;-72
2021/07/23 00:53:04;;;;;;;;;;;;;;;11.26;64.34;66528.69;5133177;27;20292;-72
2021/07/23 00:55:32;;;;;;;;;;;;;;;11.22;64.72;66523.97;5134045;27;19972;-71
2021/07/23 00:58:00;;;;;;;;;;;;;;;11.18;64.63;66519.66;5133394;27;19923;-73
2021/07/23 01:00:27;;;;;;;;;;;;;;;11.14;66.03;66515.47;5133901;27;19923;-73
2021/07/23 01:02:54;;;;;;;;;;;;;;;11.10;66.01;66510.72;5133502;27;19931;-72
2021/07/23 01:05:21;;;;;;;;;;;;;;;11.07;64.97;66506.78;5133741;27;19930;-72
2021/07/23 01:07:48;;;;;;;;;;;;;;;11.03;65.56;66502.59;5133797;27;19924;-72
2021/07/23 01:10:14;;;;;;;;;;;;;;;10.99;66.25;66498.00;5133317;28;19935;-72
2021/07/23 01:12:43;;;;;;;;;;;;;;;10.95;66.26;66493.78;5132995;27;20308;-72
2021/07/23 01:15:10;;;;;;;;;;;;;;;10.92;66.36;66489.47;5133402;28;19931;-72
2021/07/23 01:17:38;;;;;;;;;;;;;;;10.88;67.16;66485.31;5133874;28;19947;-72
2021/07/23 01:20:06;;;;;;;;;;;;;;;10.84;67.09;66480.97;5133228;28;19930;-72
2021/07/23 01:22:33;;;;;;;;;;;;;;;10.79;67.49;66475.69;5133565;28;19984;-72
2021/07/23 01:25:02;;;;;;;;;;;;;;;10.76;66.88;66471.47;5133325;28;20023;-72
2021/07/23 01:27:29;;;;;;;;;;;;;;;10.72;67.34;66467.56;5133446;28;20397;-71
2021/07/23 01:30:06;;;;;;;;;;;;;;;10.70;66.90;66464.81;5133303;28;19924;-72
2021/07/23 01:32:33;;;;;;;;;;;;;;;10.66;66.80;66461.34;5133640;28;19923;-71
2021/07/23 01:34:59;;;;;;;;;;;;;;;10.63;67.92;66457.44;5132946;28;19924;-72
2021/07/23 01:37:26;;;;;;;;;;;;;;;10.60;67.42;66454.06;5133167;28;20377;-71
2021/07/23 01:39:54;;;;;;;;;;;;;;;10.58;66.82;66451.75;5133226;28;19931;-71
2021/07/23 01:42:22;;;;;;;;;;;;;;;10.56;66.50;66450.09;5133212;28;19930;-71
2021/07/23 01:44:48;;;;;;;;;;;;;;;10.54;66.09;66447.97;5133144;28;20400;-71
2021/07/23 01:47:15;;;;;;;;;;;;;;;10.53;66.51;66445.88;5133217;28;19934;-73
2021/07/23 01:49:42;;;;;;;;;;;;;;;10.52;65.12;66444.88;5132985;28;19931;-71
2021/07/23 01:52:08;;;;;;;;;;;;;;;10.51;65.09;66444.00;5132835;28;20289;-72
2021/07/23 01:54:35;;;;;;;;;;;;;;;10.51;65.18;66443.75;5132943;28;19930;-71
2021/07/23 01:57:02;;;;;;;;;;;;;;;10.50;64.89;66442.50;5133023;28;19962;-73
2021/07/23 01:59:30;;;;;;;;;;;;;;;10.50;64.22;66442.06;5133219;28;19924;-71
2021/07/23 02:01:57;;;;;;;;;;;;;;;10.49;64.70;66441.69;5132675;28;19924;-71
2021/07/23 02:04:24;;;;;;;;;;;;;;;10.49;64.88;66441.28;5133278;28;19923;-73
2021/07/23 02:06:50;;;;;;;;;;;;;;;10.48;64.40;66441.34;5133265;28;19996;-73
2021/07/23 02:09:17;;;;;;;;;;;;;;;10.46;66.13;66439.41;5132634;28;20415;-72
2021/07/23 02:11:43;;;;;;;;;;;;;;;10.45;65.50;66438.00;5133217;28;19924;-72
2021/07/23 02:14:10;;;;;;;;;;;;;;;10.44;65.43;66437.22;5133025;28;19930;-73
2021/07/23 02:16:38;;;;;;;;;;;;;;;10.43;65.17;66436.56;5132895;28;19929;-71
2021/07/23 02:19:06;;;;;;;;;;;;;;;10.42;65.80;66435.00;5132640;28;20400;-71
2021/07/23 02:21:34;;;;;;;;;;;;;;;10.39;67.45;66431.94;5133084;28;19954;-71
2021/07/23 02:24:00;;;;;;;;;;;;;;;10.37;67.82;66428.91;5132622;28;19931;-73
2021/07/23 02:26:27;;;;;;;;;;;;;;;10.34;68.22;66426.28;5135583;27;19946;-72
2021/07/23 02:28:53;;;;;;;;;;;;;;;10.31;66.92;66423.34;5136616;27;19923;-72
2021/07/23 02:31:20;;;;;;;;;;;;;;;10.29;67.48;66420.97;5136275;27;19923;-72
2021/07/23 02:33:48;;;;;;;;;;;;;;;10.27;67.41;66418.91;5136699;27;19923;-72
2021/07/23 02:36:14;;;;;;;;;;;;;;;10.25;67.25;66416.25;5136188;27;20298;-73
2021/07/23 02:38:41;;;;;;;;;;;;;;;10.23;66.92;66414.47;5136628;27;19930;-72
2021/07/23 02:41:08;;;;;;;;;;;;;;;10.22;67.23;66412.75;5135894;27;19930;-72
2021/07/23 02:43:34;;;;;;;;;;;;;;;10.20;67.28;66410.84;5136371;27;19946;-72
2021/07/23 02:46:01;;;;;;;;;;;;;;;10.19;67.25;66409.28;5135839;27;19923;-72
2021/07/23 02:48:27;;;;;;;;;;;;;;;10.18;67.29;66408.56;5136550;27;19930;-72
2021/07/23 02:50:55;;;;;;;;;;;;;;;10.18;67.19;66408.44;5135857;27;19930;-72
2021/07/23 02:53:22;;;;;;;;;;;;;;;10.18;67.85;66408.34;5136178;27;19924;-71
2021/07/23 02:55:50;;;;;;;;;;;;;;;10.18;67.56;66408.63;5136164;27;20438;-72
2021/07/23 02:58:17;;;;;;;;;;;;;;;10.19;66.52;66409.88;5135933;27;19931;-72
2021/07/23 03:00:43;;;;;;;;;;;;;;;10.19;67.37;66410.31;5135876;27;19924;-72
2021/07/23 03:03:10;;;;;;;;;;;;;;;10.20;66.99;66410.41;5135556;27;19923;-72
2021/07/23 03:05:37;;;;;;;;;;;;;;;10.20;66.70;66411.09;5135821;27;19923;-72
2021/07/23 03:08:06;;;;;;;;;;;;;;;10.21;66.54;66412.09;5135655;27;19927;-71
2021/07/23 03:10:32;;;;;;;;;;;;;;;10.23;65.29;66414.19;5135925;27;20018;-72
2021/07/23 03:12:59;;;;;;;;;;;;;;;10.26;66.26;66417.41;5135348;27;19923;-71
2021/07/23 03:15:25;;;;;;;;;;;;;;;10.30;65.55;66421.56;5135417;27;20403;-71
2021/07/23 03:17:52;;;;;;;;;;;;;;;10.34;65.92;66426.19;5135726;27;19924;-71
2021/07/23 03:20:18;;;;;;;;;;;;;;;10.38;64.34;66431.34;5135540;27;19923;-71
2021/07/23 03:22:45;;;;;;;;;;;;;;;10.43;64.56;66436.31;5135618;27;19924;-71
2021/07/23 03:25:14;;;;;;;;;;;;;;;10.48;63.85;66441.91;5135184;27;19923;-71
2021/07/23 03:27:40;;;;;;;;;;;;;;;10.52;64.07;66446.72;5135647;27;20296;-71
2021/07/23 03:30:07;;;;;;;;;;;;;;;10.57;63.53;66452.59;5135472;27;19923;-71
2021/07/23 03:32:34;;;;;;;;;;;;;;;10.63;61.46;66458.31;5135189;27;19923;-71
2021/07/23 03:35:01;;;;;;;;;;;;;;;10.68;61.52;66464.28;5134950;27;20377;-71
2021/07/23 03:37:27;;;;;;;;;;;;;;;10.72;60.91;66469.00;5135025;27;19946;-71
2021/07/23 03:39:54;;;;;;;;;;;;;;;10.77;61.19;66474.72;5135263;27;19923;-72
2021/07/23 03:42:22;;;;;;;;;;;;;;;10.82;60.28;66479.88;5134720;27;19923;-72
2021/07/23 03:44:48;;;;;;;;;;;;;;;10.87;61.58;66485.03;5135313;27;19946;-71
2021/07/23 03:47:16;;;;;;;;;;;;;;;10.92;59.40;66490.28;5135214;27;19938;-71
2021/07/23 03:49:42;;;;;;;;;;;;;;;10.95;60.00;66494.03;5135094;27;19930;-71
2021/07/23 03:52:09;;;;;;;;;;;;;;;10.98;59.68;66497.66;5134621;27;19931;-71
2021/07/23 03:54:36;;;;;;;;;;;;;;;11.01;59.85;66500.97;5134645;27;20305;-71
2021/07/23 03:57:04;;;;;;;;;;;;;;;11.04;59.81;66503.75;5134787;27;19924;-71
2021/07/23 03:59:32;;;;;;;;;;;;;;;11.06;59.44;66506.41;5134660;27;19923;-72
2021/07/23 04:01:58;;;;;;;;;;;;;;;11.08;59.60;66509.22;5134324;27;20378;-71
2021/07/23 04:04:25;;;;;;;;;;;;;;;11.10;59.35;66511.78;5134791;27;19923;-71
2021/07/23 04:06:55;;;;;;;;;;;;;;;11.13;59.90;66514.16;5134449;27;19923;-71
2021/07/23 04:09:21;;;;;;;;;;;;;;;11.14;60.62;66515.69;5134218;27;19923;-71
2021/07/23 04:11:49;;;;;;;;;;;;;;;11.15;60.41;66517.53;5134734;27;19923;-71
2021/07/23 04:14:16;;;;;;;;;;;;;;;11.17;60.86;66518.97;5134347;27;19924;-71
2021/07/23 04:16:44;;;;;;;;;;;;;;;11.18;61.19;66520.38;5134311;27;20325;-71
2021/07/23 04:19:11;;;;;;;;;;;;;;;11.20;60.56;66522.31;5133897;27;19927;-72
2021/07/23 04:21:38;;;;;;;;;;;;;;;11.22;60.96;66524.69;5134408;27;19923;-71
2021/07/23 04:24:05;;;;;;;;;;;;;;;11.24;60.51;66526.75;5133845;27;19927;-71
2021/07/23 04:26:32;;;;;;;;;;;;;;;11.27;60.07;66529.66;5134333;27;19923;-71
2021/07/23 04:28:59;;;;;;;;;;;;;;;11.29;59.73;66532.50;5134244;27;19923;-71
2021/07/23 04:31:25;;;;;;;;;;;;;;;11.32;59.33;66535.38;5134266;27;19931;-71
2021/07/23 04:33:53;;;;;;;;;;;;;;;11.34;59.13;66538.81;5134262;27;19924;-71
2021/07/23 04:36:20;;;;;;;;;;;;;;;11.37;58.25;66542.16;5133671;27;20270;-70
2021/07/23 04:38:46;;;;;;;;;;;;;;;11.41;56.98;66546.06;5134336;27;19946;-70
2021/07/23 04:41:13;;;;;;;;;;;;;;;11.44;56.70;66549.72;5133965;27;19923;-70
2021/07/23 04:43:39;;;;;;;;;;;;;;;11.47;56.60;66552.66;5133825;27;19924;-70
2021/07/23 04:46:06;;;;;;;;;;;;;;;11.50;56.82;66556.41;5133902;27;19927;-70
2021/07/23 04:48:33;;;;;;;;;;;;;;;11.53;56.89;66559.75;5133586;27;19924;-70
2021/07/23 04:51:03;;;;;;;;;;;;;;;11.57;55.61;66564.19;5133650;27;19980;-71
2021/07/23 04:53:29;;;;;;;;;;;;;;;11.61;56.08;66568.34;5133678;27;19924;-70
2021/07/23 04:55:59;;;;;;;;;;;;;;;11.66;55.55;66573.88;5133983;27;19928;-71
2021/07/23 04:58:26;;;;;;;;;;;;;;;11.72;55.83;66580.16;5133980;27;19923;-72
2021/07/23 05:00:53;;;;;;;;;;;;;;;11.77;54.74;66586.16;5133540;27;19923;-71
2021/07/23 05:03:20;;;;;;;;;;;;;;;11.84;54.20;66593.69;5133196;27;19924;-71
2021/07/23 05:05:47;;;;;;;;;;;;;;;11.91;54.37;66601.84;5133885;27;19923;-71
2021/07/23 05:08:15;;;;;;;;;;;;;;;11.98;54.12;66609.94;5133306;27;19924;-71
2021/07/23 05:10:42;;;;;;;;;;;;;;;12.05;53.23;66617.75;5133771;27;19923;-71
2021/07/23 05:13:10;;;;;;;;;;;;;;;12.11;53.28;66624.16;5133095;28;19923;-71
2021/07/23 05:15:37;;;;;;;;;;;;;;;12.17;54.03;66631.50;5133743;28;19923;-71
2021/07/23 05:18:05;;;;;;;;;;;;;;;12.24;52.51;66639.59;5133465;28;19946;-72
2021/07/23 05:20:31;;;;;;;;;;;;;;;12.31;52.89;66647.16;5133655;28;19923;-71
2021/07/23 05:22:58;;;;;;;;;;;;;;;12.37;52.04;66653.88;5133349;28;19946;-71
2021/07/23 05:25:26;;;;;;;;;;;;;;;12.42;52.28;66659.75;5133383;28;20135;-71
2021/07/23 05:27:52;;;;;;;;;;;;;;;12.47;53.13;66665.06;5133265;28;19931;-71
2021/07/23 05:30:19;;;;;;;;;;;;;;;12.51;53.20;66670.50;5133610;28;20389;-71
2021/07/23 05:32:46;;;;;;;;;;;;;;;12.56;52.64;66675.38;5133518;28;20285;-71
2021/07/23 05:35:12;;;;;;;;;;;;;;;12.60;52.18;66680.09;5133306;28;19929;-71
2021/07/23 05:37:39;;;;;;;;;;;;;;;12.65;52.76;66685.38;5133210;28;20389;-71
2021/07/23 05:40:06;;;;;;;;;;;;;;;12.70;52.92;66691.41;5133169;28;19934;-71
2021/07/23 05:42:34;;;;;;;;;;;;;;;12.75;52.21;66696.84;5133176;28;20051;-71
2021/07/23 05:45:01;;;;;;;;;;;;;;;12.79;53.34;66701.41;5132967;28;20396;-71
2021/07/23 05:47:28;;;;;;;;;;;;;;;12.84;53.10;66706.69;5133416;28;19923;-71
2021/07/23 05:49:54;;;;;;;;;;;;;;;12.89;52.82;66712.00;5133074;28;19924;-71
2021/07/23 05:52:21;;;;;;;;;;;;;;;12.93;52.32;66717.16;5133060;28;19924;-71
2021/07/23 05:54:48;;;;;;;;;;;;;;;12.99;52.85;66723.50;5132938;28;19930;-71
2021/07/23 05:57:14;;;;;;;;;;;;;;;13.03;52.54;66728.66;5132722;28;20378;-71
2021/07/23 05:59:42;;;;;;;;;;;;;;;13.09;51.86;66734.50;5134681;27;19936;-71
2021/07/23 06:02:09;;;;;;;;;;;;;;;13.14;51.67;66739.78;5136909;27;19931;-71
2021/07/23 06:04:35;;;;;;;;;;;;;;;13.18;51.64;66745.09;5136907;27;19934;-71
2021/07/23 06:07:04;;;;;;;;;;;;;;;13.22;51.69;66749.84;5136666;27;19924;-73
2021/07/23 06:09:30;;;;;;;;;;;;;;;13.27;51.30;66755.47;5136723;27;20397;-72
2021/07/23 06:11:57;;;;;;;;;;;;;;;13.33;52.25;66761.78;5136782;27;19924;-72
2021/07/23 06:14:23;;;;;;;;;;;;;;;13.37;51.62;66767.41;5136635;27;19930;-72
2021/07/23 06:16:54;;;;;;;;;;;;;;;13.43;52.73;66773.69;5137000;27;19961;-70
2021/07/23 06:19:21;;;;;;;;;;;;;;;13.48;50.78;66779.34;5136755;27;19924;-70
2021/07/23 06:21:47;;;;;;;;;;;;;;;13.53;52.46;66784.13;5136964;27;19941;-70
2021/07/23 06:24:14;;;;;;;;;;;;;;;13.56;51.05;66788.13;5136353;27;19924;-71
2021/07/23 06:26:41;;;;;;;;;;;;;;;13.59;51.79;66791.34;5136532;27;20370;-71
2021/07/23 06:29:07;;;;;;;;;;;;;;;13.61;51.44;66793.00;5136590;27;19958;-70
2021/07/23 06:31:35;;;;;;;;;;;;;;;13.64;51.88;66796.41;5136670;27;19935;-70
2021/07/23 06:34:03;;;;;;;;;;;;;;;13.69;50.26;66802.13;5136181;27;19923;-70
2021/07/23 06:36:31;;;;;;;;;;;;;;;13.76;49.19;66810.22;5136553;27;19930;-70
2021/07/23 06:38:58;;;;;;;;;;;;;;;13.84;49.55;66819.16;5136168;27;19924;-70
2021/07/23 06:41:24;;;;;;;;;;;;;;;13.92;49.52;66828.66;5136319;27;19924;-70
2021/07/23 06:43:51;;;;;;;;;;;;;;;13.99;49.43;66836.09;5136472;27;19924;-74
2021/07/23 06:46:18;;;;;;;;;;;;;;;14.04;49.15;66842.09;5136329;27;19930;-71
2021/07/23 06:48:44;;;;;;;;;;;;;;;14.09;49.59;66847.81;5136173;27;20396;-72
2021/07/23 06:51:13;;;;;;;;;;;;;;;14.16;48.00;66855.38;5135720;27;19927;-72
2021/07/23 06:53:40;;;;;;;;;;;;;;;14.22;48.10;66862.44;5135730;27;20381;-72
2021/07/23 06:56:07;;;;;;;;;;;;;;;14.29;47.52;66870.00;5135981;27;19923;-72
2021/07/23 06:58:34;;;;;;;;;;;;;;;14.36;47.71;66878.72;5135916;27;20395;-72
2021/07/23 07:01:04;;;;;;;;;;;;;;;14.43;48.00;66886.09;5135985;27;19962;-72
2021/07/23 07:03:30;;;;;;;;;;;;;;;14.53;47.08;66896.84;5135714;27;19923;-72
2021/07/23 07:05:58;;;;;;;;;;;;;;;14.66;44.55;66911.56;5135635;27;20399;-72
2021/07/23 07:08:26;;;;;;;;;;;;;;;14.74;45.51;66921.34;5135851;27;19954;-72
2021/07/23 07:10:53;;;;;;;;;;;;;;;14.82;44.32;66930.66;5135265;27;19924;-72
2021/07/23 07:13:19;;;;;;;;;;;;;;;14.88;46.51;66936.72;5135541;27;19934;-71
2021/07/23 07:15:46;;;;;;;;;;;;;;;14.95;45.54;66943.94;5135615;27;19935;-71
2021/07/23 07:18:12;;;;;;;;;;;;;;;15.02;46.56;66952.16;5135457;27;19947;-70
2021/07/23 07:20:39;;;;;;;;;;;;;;;15.12;44.09;66963.22;5135623;27;19924;-70
2021/07/23 07:23:06;;;;;;;;;;;;;;;15.19;44.44;66971.78;5135091;27;19935;-70
2021/07/23 07:25:34;;;;;;;;;;;;;;;15.27;45.06;66980.03;5135311;27;20374;-70
2021/07/23 07:28:02;;;;;;;;;;;;;;;15.34;45.40;66988.09;5134951;27;20373;-70
2021/07/23 07:30:29;;;;;;;;;;;;;;;15.46;44.35;67001.94;5135199;27;19924;-70
2021/07/23 07:32:56;;;;;;;;;;;;;;;15.61;42.44;67018.00;5135476;27;19923;-70
2021/07/23 07:35:23;;;;;;;;;;;;;;;15.73;41.11;67032.00;5134902;27;19923;-70
2021/07/23 07:37:50;;;;;;;;;;;;;;;15.84;42.34;67044.78;5135411;27;19931;-70
2021/07/23 07:40:16;;;;;;;;;;;;;;;15.91;42.80;67051.91;5134772;27;19927;-70
2021/07/23 07:42:44;;;;;;;;;;;;;;;15.99;39.68;67061.69;5134845;27;20093;-70
2021/07/23 07:45:11;;;;;;;;;;;;;;;16.06;39.84;67069.88;5134740;27;19924;-70
2021/07/23 07:47:38;;;;;;;;;;;;;;;16.13;39.50;67077.28;5134953;27;20396;-70
2021/07/23 07:50:05;;;;;;;;;;;;;;;16.25;39.13;67090.69;5134946;27;19930;-71
2021/07/23 07:52:32;;;;;;;;;;;;;;;16.37;37.47;67104.00;5134865;27;20301;-70
2021/07/23 07:54:58;;;;;;;;;;;;;;;16.47;37.87;67115.91;5134556;27;19923;-70
2021/07/23 07:57:25;;;;;;;;;;;;;;;16.60;37.18;67130.22;5135204;27;19924;-72
2021/07/23 07:59:53;;;;;;;;;;;;;;;16.68;38.69;67139.00;5134831;27;19930;-71
2021/07/23 08:02:20;;;;;;;;;;;;;;;16.80;38.00;67153.34;5134409;27;19935;-72
2021/07/23 08:04:46;;;;;;;;;;;;;;;17.03;34.66;67178.97;5134837;27;19934;-71
2021/07/23 08:07:18;;;;;;;;;;;;;;;17.19;36.91;67196.84;5134584;27;19924;-70
2021/07/23 08:09:48;;;;;;;;;;;;;;;17.26;39.32;67204.97;5134792;27;19923;-70
2021/07/23 08:12:15;;;;;;;;;;;;;;;17.44;36.81;67224.66;5134127;27;20431;-70
2021/07/23 08:14:41;;;;;;;;;;;;;;;17.57;37.13;67238.84;5134359;27;20374;-70
2021/07/23 08:17:09;;;;;;;;;;;;;;;17.63;38.50;67245.88;5134433;27;19931;-71
2021/07/23 08:19:37;;;;;;;;;;;;;;;17.67;38.69;67250.31;5134352;27;19924;-70
2021/07/23 08:22:04;;;;;;;;;;;;;;;17.76;37.41;67260.31;5133870;27;19968;-70
2021/07/23 08:24:31;;;;;;;;;;;;;;;17.78;39.46;67262.97;5133484;27;19923;-70
2021/07/23 08:26:57;;;;;;;;;;;;;;;17.95;35.56;67282.44;5134430;27;19930;-70
2021/07/23 08:29:24;;;;;;;;;;;;;;;18.15;34.59;67304.53;5133879;27;19924;-73
2021/07/23 08:31:50;;;;;;;;;;;;;;;18.25;37.44;67316.19;5134484;27;20289;-71
2021/07/23 08:34:18;;;;;;;;;;;;;;;18.30;37.41;67321.09;5134041;27;19927;-70
2021/07/23 08:36:45;;;;;;;;;;;;;;;18.26;38.85;67317.00;5134093;27;20393;-70
2021/07/23 08:39:11;;;;;;;;;;;;;;;18.18;41.76;67307.63;5133933;27;19934;-70
2021/07/23 08:41:38;;;;;;;;;;;;;;;18.08;40.45;67296.28;5134325;27;19924;-70
2021/07/23 08:44:05;;;;;;;;;;;;;;;17.98;42.16;67285.19;5133648;27;19924;-70
2021/07/23 08:46:32;;;;;;;;;;;;;;;17.85;43.21;67270.91;5133985;27;19923;-72
2021/07/23 08:48:59;;;;;;;;;;;;;;;17.71;44.58;67254.91;5134248;27;19930;-71
2021/07/23 08:51:27;;;;;;;;;;;;;;;17.57;45.73;67238.31;5134153;27;20026;-70
2021/07/23 08:53:53;;;;;;;;;;;;;;;17.41;45.71;67220.75;5133546;27;20404;-72
2021/07/23 08:56:20;;;;;;;;;;;;;;;17.28;45.18;67205.22;5134205;27;19930;-71
2021/07/23 08:58:46;;;;;;;;;;;;;;;17.15;45.62;67190.78;5133754;27;19930;-70
2021/07/23 09:01:13;;;;;;;;;;;;;;;17.03;47.12;67177.03;5133418;27;19923;-72
2021/07/23 09:03:39;;;;;;;;;;;;;;;16.93;46.33;67166.31;5133938;27;19930;-71
2021/07/23 09:06:14;;;;;;;;;;;;;;;16.89;45.16;67161.41;5133285;27;19923;-71
2021/07/23 09:08:47;;;;;;;;;;;;;;;16.90;43.10;67163.41;5133911;27;19923;-71
2021/07/23 09:11:14;;;;;;;;;;;;;;;17.03;40.37;67177.25;5133251;27;19923;-71
2021/07/23 09:13:40;;;;;;;;;;;;;;;17.13;39.43;67189.00;5133703;28;19931;-71
2021/07/23 09:16:22;;;;;;;;;;;;;;;17.36;36.89;67215.19;5133233;28;19927;-72
2021/07/23 09:18:48;;;;;;;;;;;;;;;17.60;34.97;67241.94;5133301;28;19923;-71
2021/07/23 09:21:17;;;;;;;;;;;;;;;17.79;34.65;67263.53;5133259;28;19924;-70
2021/07/23 09:23:44;;;;;;;;;;;;;;;18.01;33.51;67287.47;5133579;28;19924;-71
2021/07/23 09:26:17;;;;;;;;;;;;;;;18.14;35.37;67302.31;5133179;28;20373;-72
2021/07/23 09:28:44;;;;;;;;;;;;;;;18.35;34.69;67326.34;5133458;28;19923;-72
2021/07/23 09:31:20;;;;;;;;;;;;;;;18.55;34.07;67348.75;5133354;28;19923;-71
2021/07/23 09:33:46;;;;;;;;;;;;;;;18.77;32.84;67374.16;5133707;27;19945;-71
2021/07/23 09:36:14;;;;;;;;;;;;;;;19.11;29.95;67412.13;5136973;27;19931;-71
2021/07/23 09:38:41;;;;;;;;;;;;;;;19.47;29.93;67452.25;5137450;27;19930;-71
2021/07/23 09:41:09;;;;;;;;;;;;;;;19.70;30.20;67478.94;5137165;27;19927;-71
2021/07/23 09:43:38;;;;;;;;;;;;;;;19.77;33.42;67485.94;5137617;27;19923;-71
2021/07/23 09:46:25;;;;;;;;;;;;;;;19.83;34.33;67492.78;5137075;27;19924;-72
2021/07/23 09:48:53;;;;;;;;;;;;;;;19.83;35.82;67492.34;5137392;27;20327;-71
2021/07/23 09:51:20;;;;;;;;;;;;;;;19.79;37.21;67488.78;5137096;27;19992;-71
2021/07/23 09:53:47;;;;;;;;;;;;;;;19.75;35.47;67484.53;5136898;27;20382;-71
2021/07/23 09:56:13;;;;;;;;;;;;;;;19.73;36.44;67482.19;5137323;27;19923;-71
2021/07/23 09:58:43;;;;;;;;;;;;;;;19.64;38.17;67471.34;5136968;27;20523;-71
2021/07/23 10:01:11;;;;;;;;;;;;;;;19.62;37.00;67468.78;5136805;27;20408;-71
2021/07/23 10:03:40;;;;;;;;;;;;;;;19.53;38.83;67459.28;5137210;27;19931;-71
2021/07/23 10:06:08;;;;;;;;;;;;;;;19.45;39.15;67450.75;5136653;27;20382;-70
2021/07/23 10:08:36;;;;;;;;;;;;;;;19.36;41.37;67439.75;5136869;27;19923;-71
2021/07/23 10:11:04;;;;;;;;;;;;;;;19.30;40.38;67433.72;5136925;27;19931;-70
2021/07/23 10:13:31;;;;;;;;;;;;;;;19.32;40.25;67435.13;5136887;27;19931;-71
2021/07/23 10:15:59;;;;;;;;;;;;;;;19.33;38.57;67436.97;5137015;27;19933;-71
2021/07/23 10:18:27;;;;;;;;;;;;;;;19.30;38.01;67433.28;5136945;27;20284;-70
2021/07/23 10:20:54;;;;;;;;;;;;;;;19.21;40.95;67423.28;5136827;27;19930;-70
2021/07/23 10:23:22;;;;;;;;;;;;;;;19.29;36.74;67431.84;5136282;27;20372;-70
2021/07/23 10:25:50;;;;;;;;;;;;;;;19.44;34.86;67448.09;5136785;27;19923;-70
2021/07/23 10:28:47;;;;;;;;;;;;;;;19.46;37.74;67450.88;5136279;27;19976;-70
2021/07/23 10:31:28;;;;;;;;;;;;;;;19.42;39.70;67445.81;5032811;28;19929;-70
2021/07/23 10:33:57;;;;;;;;;;;;;;;19.32;41.62;67435.31;5121854;27;19927;-70
2021/07/23 10:36:36;;;;;;;;;;;;;;;19.26;39.69;67428.00;5136317;27;19923;-70
2021/07/23 10:39:09;;;;;;;;;;;;;;;19.18;40.92;67419.03;5136161;27;19930;-70
2021/07/23 10:41:37;;;;;;;;;;;;;;;19.07;42.78;67406.13;5136313;27;20375;-70
2021/07/23 10:44:04;;;;;;;;;;;;;;;18.99;41.01;67397.84;5135802;27;19924;-70
2021/07/23 10:46:46;;;;;;;;;;;;;;;19.13;35.14;67413.00;5135307;27;19930;-70
2021/07/23 10:49:34;;;;;;;;;;;;;;;19.31;32.90;67433.03;5135088;27;19927;-70
2021/07/23 10:52:01;;;;;;;;;;;;;;;19.45;34.97;67448.72;5135650;27;19935;-70
2021/07/23 10:54:29;;;;;;;;;;;;;;;19.44;38.94;67447.72;5135766;27;19978;-72
2021/07/23 10:57:10;;;;;;;;;;;;;;;19.40;40.31;67443.31;5135900;27;20308;-72
2021/07/23 10:59:50;;;;;;;;;;;;;;;19.31;41.06;67432.69;5132211;27;19923;-72
2021/07/23 11:02:35;;;;;;;;;;;;;;;19.20;42.00;67420.94;5135878;27;19930;-72
2021/07/23 11:05:05;;;;;;;;;;;;;;;19.19;40.70;67419.94;5135435;27;20370;-73
2021/07/23 11:07:32;;;;;;;;;;;;;;;19.22;39.08;67423.16;5136132;27;19927;-72
2021/07/23 11:09:59;;;;;;;;;;;;;;;19.35;35.94;67438.19;5135594;27;19923;-72
2021/07/23 11:12:26;;;;;;;;;;;;;;;19.51;35.46;67455.75;5135631;27;19930;-72
2021/07/23 11:14:53;;;;;;;;;;;;;;;19.66;33.84;67472.44;5136062;27;19931;-73
2021/07/23 11:17:20;;;;;;;;;;;;;;;19.72;36.72;67479.59;5135296;27;19930;-73
2021/07/23 11:19:47;;;;;;;;;;;;;;;19.82;34.88;67490.44;5135765;27;19969;-72
2021/07/23 11:22:21;;;;;;;;;;;;;;;20.00;31.98;67511.19;5135145;27;19930;-72
2021/07/23 11:24:48;;;;;;;;;;;;;;;20.18;31.22;67531.47;5135732;27;19923;-73
2021/07/23 11:27:23;;;;;;;;;;;;;;;20.23;34.92;67537.03;5135037;27;19930;-71
2021/07/23 11:29:50;;;;;;;;;;;;;;;20.26;35.30;67540.84;5135438;27;19930;-70
2021/07/23 11:32:17;;;;;;;;;;;;;;;20.31;33.63;67546.69;5135048;27;19929;-70
2021/07/23 11:34:45;;;;;;;;;;;;;;;20.37;33.84;67553.13;5135430;27;20270;-70
2021/07/23 11:37:17;;;;;;;;;;;;;;;20.32;36.68;67547.56;5135113;27;19923;-70
2021/07/23 11:39:54;;;;;;;;;;;;;;;20.20;39.10;67533.19;5135049;27;19923;-70
2021/07/23 11:42:20;;;;;;;;;;;;;;;20.09;39.53;67521.88;5135095;27;19931;-73
2021/07/23 11:44:50;;;;;;;;;;;;;;;20.02;40.08;67513.31;5134846;27;19972;-72
2021/07/23 11:47:17;;;;;;;;;;;;;;;19.94;39.43;67504.72;5134702;27;19923;-72
2021/07/23 11:49:43;;;;;;;;;;;;;;;19.89;37.92;67498.81;5135223;27;19930;-73
2021/07/23 11:52:10;;;;;;;;;;;;;;;19.85;37.58;67494.59;5134478;27;19923;-73
2021/07/23 11:54:38;;;;;;;;;;;;;;;19.79;35.75;67487.59;5134794;27;19923;-72
2021/07/23 11:57:05;;;;;;;;;;;;;;;19.74;37.05;67481.28;5134249;27;19924;-72
2021/07/23 11:59:36;;;;;;;;;;;;;;;19.71;36.51;67478.94;5134675;27;19935;-72
2021/07/23 12:02:07;;;;;;;;;;;;;;;19.69;35.25;67476.41;5134342;27;19923;-73
2021/07/23 12:04:39;;;;;;;;;;;;;;;19.69;35.60;67476.25;5133911;27;20278;-72
2021/07/23 12:07:06;;;;;;;;;;;;;;;19.74;36.53;67481.28;5134661;27;20010;-72
2021/07/23 12:09:33;;;;;;;;;;;;;;;19.78;35.93;67486.50;5134506;27;20001;-73
2021/07/23 12:12:01;;;;;;;;;;;;;;;19.84;35.89;67493.66;5134453;27;19930;-72
2021/07/23 12:14:27;;;;;;;;;;;;;;;19.88;37.27;67497.56;5134699;27;19923;-72
2021/07/23 12:16:54;;;;;;;;;;;;;;;19.83;39.01;67491.94;5134483;27;19923;-73
2021/07/23 12:19:21;;;;;;;;;;;;;;;19.77;39.22;67485.06;5134221;27;19924;-73
2021/07/23 12:21:48;;;;;;;;;;;;;;;19.68;40.43;67475.41;5134384;27;19930;-72
2021/07/23 12:24:14;;;;;;;;;;;;;;;19.60;40.03;67466.75;5133798;27;19927;-72
2021/07/23 12:26:41;;;;;;;;;;;;;;;19.52;41.31;67457.03;5134164;27;20403;-72
2021/07/23 12:29:10;;;;;;;;;;;;;;;19.44;40.79;67447.88;5134486;27;19923;-73
2021/07/23 12:31:38;;;;;;;;;;;;;;;19.37;42.12;67440.03;5133996;27;19923;-73
2021/07/23 12:34:06;;;;;;;;;;;;;;;19.30;41.00;67432.09;5133793;27;19972;-72
2021/07/23 12:36:42;;;;;;;;;;;;;;;19.19;43.15;67419.34;5133982;27;19930;-72
2021/07/23 12:39:09;;;;;;;;;;;;;;;19.09;42.21;67409.03;5133502;27;19930;-72
2021/07/23 12:41:36;;;;;;;;;;;;;;;18.99;42.00;67397.38;5133868;27;20022;-72
2021/07/23 12:44:04;;;;;;;;;;;;;;;18.87;44.75;67383.13;5133975;27;19923;-72
2021/07/23 12:46:32;;;;;;;;;;;;;;;18.78;43.30;67372.47;5133839;27;19928;-72
2021/07/23 12:49:08;;;;;;;;;;;;;;;18.67;43.33;67359.63;5133800;27;19931;-72
2021/07/23 12:51:35;;;;;;;;;;;;;;;18.52;46.21;67342.78;5133576;27;19924;-72